createdAt,value
2018-04-15T00:02:15.883Z,90.62
2018-04-15T00:04:43.337Z,102.87
2018-04-15T00:07:10.790Z,85.15
2018-04-15T00:09:38.357Z,88.93
2018-04-15T00:12:05.807Z,103.28
2018-04-15T00:14:33.224Z,86.93
2018-04-15T00:17:01.434Z,95.80
2018-04-15T00:19:28.923Z,85.32
2018-04-15T00:21:56.369Z,82.37
2018-04-15T00:24:23.845Z,82.12
2018-04-15T00:26:51.284Z,90.10
2018-04-15T00:29:18.750Z,86.03
2018-04-15T00:31:46.209Z,91.63
2018-04-15T00:34:13.646Z,85.28
2018-04-15T00:36:41.089Z,83.18
2018-04-15T00:39:08.576Z,85.35
2018-04-15T00:41:36.113Z,96.57
2018-04-15T00:44:03.538Z,88.20
2018-04-15T00:46:30.981Z,89.45
2018-04-15T00:48:59.206Z,79.15
2018-04-15T00:51:26.656Z,76.87
2018-04-15T00:54:05.929Z,81.55
2018-04-15T00:56:33.365Z,81.60
2018-04-15T00:59:00.808Z,82.00
2018-04-15T01:01:28.268Z,81.80
2018-04-15T01:03:55.708Z,93.80
2018-04-15T01:06:23.149Z,87.32
2018-04-15T01:08:50.584Z,83.22
2018-04-15T01:11:18.893Z,85.12
2018-04-15T01:13:46.350Z,83.20
2018-04-15T01:16:13.775Z,85.20
2018-04-15T01:18:42.083Z,87.32
2018-04-15T01:21:09.497Z,86.60
2018-04-15T01:23:37.714Z,87.18
2018-04-15T01:26:05.152Z,85.35
2018-04-15T01:28:32.596Z,92.88
2018-04-15T01:31:00.045Z,86.17
2018-04-15T01:33:28.262Z,88.28
2018-04-15T01:35:55.701Z,83.45
2018-04-15T01:38:23.146Z,82.53
2018-04-15T01:40:50.581Z,89.03
2018-04-15T01:43:18.832Z,93.85
2018-04-15T01:45:46.292Z,87.80
2018-04-15T01:48:13.728Z,85.35
2018-04-15T01:50:41.925Z,89.60
2018-04-15T01:53:09.386Z,86.37
2018-04-15T01:55:36.810Z,79.90
2018-04-15T01:58:04.355Z,86.87
2018-04-15T02:00:31.835Z,84.75
2018-04-15T02:02:59.276Z,84.57
2018-04-15T02:05:26.708Z,83.60
2018-04-15T02:07:54.148Z,83.65
2018-04-15T02:10:22.349Z,86.68
2018-04-15T02:12:49.797Z,83.15
2018-04-15T02:15:17.238Z,81.20
2018-04-15T02:17:45.445Z,74.78
2018-04-15T02:20:12.900Z,83.00
2018-04-15T02:22:40.358Z,83.75
2018-04-15T02:25:07.793Z,86.53
2018-04-15T02:27:35.233Z,79.05
2018-04-15T02:30:03.452Z,80.80
2018-04-15T02:32:30.895Z,83.80
2018-04-15T02:34:58.335Z,82.85
2018-04-15T02:37:25.781Z,85.50
2018-04-15T02:39:53.992Z,85.90
2018-04-15T02:42:21.453Z,83.57
2018-04-15T02:44:48.887Z,91.57
2018-04-15T02:47:16.372Z,91.22
2018-04-15T02:49:43.836Z,91.37
2018-04-15T02:52:11.293Z,97.28
2018-04-15T02:54:38.744Z,102.13
2018-04-15T02:57:06.202Z,100.30
2018-04-15T02:59:33.760Z,104.65
2018-04-15T03:02:01.210Z,108.47
2018-04-15T03:04:28.676Z,98.60
2018-04-15T03:06:56.137Z,107.20
2018-04-15T03:09:23.590Z,109.87
2018-04-15T03:11:51.034Z,106.80
2018-04-15T03:14:18.478Z,103.05
2018-04-15T03:16:45.921Z,109.43
2018-04-15T03:19:13.379Z,107.50
2018-04-15T03:21:40.832Z,114.37
2018-04-15T03:24:08.303Z,114.80
2018-04-15T03:26:35.736Z,111.60
2018-04-15T03:29:03.945Z,108.00
2018-04-15T03:31:31.390Z,110.78
2018-04-15T03:33:58.857Z,119.55
2018-04-15T03:36:26.302Z,110.55
2018-04-15T03:38:53.748Z,114.50
2018-04-15T03:41:21.190Z,110.40
2018-04-15T03:43:48.636Z,111.82
2018-04-15T03:46:16.841Z,108.20
2018-04-15T03:48:44.300Z,107.23
2018-04-15T03:51:11.739Z,100.35
2018-04-15T03:53:39.195Z,104.28
2018-04-15T03:56:06.625Z,102.65
2018-04-15T03:58:34.078Z,101.03
2018-04-15T04:01:01.525Z,103.60
2018-04-15T04:03:28.978Z,106.33
2018-04-15T04:05:56.421Z,106.63
2018-04-15T04:08:23.864Z,106.72
2018-04-15T04:10:51.306Z,99.85
2018-04-15T04:13:18.753Z,99.87
2018-04-15T04:15:46.200Z,105.78
2018-04-15T04:18:25.755Z,105.15
2018-04-15T04:21:05.156Z,108.37
2018-04-15T04:23:45.376Z,112.55
2018-04-15T04:26:13.767Z,104.95
2018-04-15T04:28:41.224Z,104.37
2018-04-15T04:31:08.764Z,97.80
2018-04-15T04:33:36.210Z,107.12
2018-04-15T04:36:03.651Z,98.57
2018-04-15T04:38:31.090Z,106.87
2018-04-15T04:40:58.594Z,103.38
2018-04-15T04:43:26.032Z,108.12
2018-04-15T04:45:53.482Z,101.10
2018-04-15T04:48:20.909Z,95.93
2018-04-15T04:50:48.352Z,102.95
2018-04-15T04:53:16.597Z,101.60
2018-04-15T04:55:44.041Z,101.90
2018-04-15T04:58:11.513Z,97.80
2018-04-15T05:00:38.953Z,97.75
2018-04-15T05:03:06.392Z,101.85
2018-04-15T05:05:33.868Z,94.65
2018-04-15T05:08:01.297Z,98.35
2018-04-15T05:10:28.732Z,91.57
2018-04-15T05:12:56.233Z,87.97
2018-04-15T05:15:23.671Z,86.30
2018-04-15T05:17:51.160Z,87.68
2018-04-15T05:20:18.700Z,84.72
2018-04-15T05:22:46.168Z,80.15
2018-04-15T05:25:13.601Z,79.90
2018-04-15T05:27:41.046Z,78.30
2018-04-15T05:30:08.533Z,80.43
2018-04-15T05:32:35.965Z,80.60
2018-04-15T05:35:03.445Z,74.95
2018-04-15T05:37:30.928Z,79.30
2018-04-15T05:39:58.326Z,75.00
2018-04-15T05:42:25.752Z,72.97
2018-04-15T05:44:53.235Z,73.05
2018-04-15T05:47:20.668Z,76.65
2018-04-15T05:49:48.881Z,71.85
2018-04-15T05:52:16.329Z,76.47
2018-04-15T05:54:43.776Z,72.00
2018-04-15T05:57:11.215Z,70.65
2018-04-15T05:59:39.448Z,69.80
2018-04-15T06:02:06.894Z,73.28
2018-04-15T06:04:34.348Z,65.50
2018-04-15T06:07:01.785Z,70.45
2018-04-15T06:09:29.232Z,64.55
2018-04-15T06:14:30.686Z,72.00
2018-04-15T06:16:58.888Z,65.80
2018-04-15T06:19:26.345Z,67.37
2018-04-15T06:21:53.771Z,60.90
2018-04-15T06:24:21.974Z,58.63
2018-04-15T06:26:49.421Z,62.55
2018-04-15T06:29:16.908Z,60.55
2018-04-15T06:31:44.472Z,60.67
2018-04-15T06:34:11.904Z,62.60
2018-04-15T06:36:39.441Z,62.40
2018-04-15T06:39:06.809Z,61.03
2018-04-15T06:41:34.294Z,60.47
2018-04-15T06:44:01.733Z,59.15
2018-04-15T06:46:29.208Z,57.23
2018-04-15T06:48:56.657Z,61.42
2018-04-15T06:51:24.092Z,60.35
2018-04-15T06:53:51.568Z,58.80
2018-04-15T06:56:19.025Z,55.17
2018-04-15T06:58:46.469Z,57.97
2018-04-15T07:01:13.940Z,58.75
2018-04-15T07:03:41.406Z,60.83
2018-04-15T07:06:08.869Z,58.97
2018-04-15T07:08:36.313Z,58.72
2018-04-15T07:11:03.766Z,60.50
2018-04-15T07:13:31.216Z,56.95
2018-04-15T07:15:58.662Z,58.03
2018-04-15T07:18:26.092Z,57.83
2018-04-15T07:20:53.536Z,55.22
2018-04-15T07:23:21.763Z,54.10
2018-04-15T07:25:49.213Z,56.83
2018-04-15T07:28:16.666Z,55.00
2018-04-15T07:30:44.133Z,55.78
2018-04-15T07:33:11.568Z,55.45
2018-04-15T07:35:39.024Z,56.78
2018-04-15T07:38:06.448Z,55.40
2018-04-15T07:40:34.656Z,55.45
2018-04-15T07:43:02.095Z,58.80
2018-04-15T07:45:29.580Z,58.67
2018-04-15T07:47:57.037Z,64.40
2018-04-15T07:50:24.485Z,61.63
2018-04-15T07:52:51.920Z,65.80
2018-04-15T07:55:19.361Z,67.50
2018-04-15T07:57:47.593Z,66.03
2018-04-15T08:00:15.033Z,67.82
2018-04-15T08:02:42.579Z,65.55
2018-04-15T08:05:10.053Z,60.85
2018-04-15T08:07:37.503Z,60.92
2018-04-15T08:10:04.948Z,65.20
2018-04-15T08:12:32.388Z,64.18
2018-04-15T08:14:59.820Z,59.08
2018-04-15T08:17:28.032Z,58.85
2018-04-15T08:19:55.501Z,62.50
2018-04-15T08:22:22.969Z,65.78
2018-04-15T08:24:50.404Z,66.35
2018-04-15T08:27:17.853Z,62.33
2018-04-15T08:29:45.340Z,60.97
2018-04-15T08:32:12.897Z,58.43
2018-04-15T08:34:40.340Z,60.30
2018-04-15T08:37:07.776Z,60.90
2018-04-15T08:39:35.217Z,60.80
2018-04-15T08:42:02.751Z,64.53
2018-04-15T08:44:30.171Z,63.95
2018-04-15T08:46:57.713Z,62.80
2018-04-15T08:49:25.133Z,64.25
2018-04-15T08:51:53.343Z,65.80
2018-04-15T08:54:20.785Z,66.60
2018-04-15T08:56:48.229Z,60.75
2018-04-15T08:59:16.460Z,63.40
2018-04-15T09:01:43.900Z,62.70
2018-04-15T09:04:11.331Z,63.42
2018-04-15T09:06:38.781Z,65.75
2018-04-15T09:09:06.267Z,67.60
2018-04-15T09:11:33.709Z,67.18
2018-04-15T09:14:01.141Z,64.28
2018-04-15T09:16:28.599Z,68.37
2018-04-15T09:18:56.040Z,65.40
2018-04-15T09:21:24.268Z,63.58
2018-04-15T09:23:51.767Z,67.10
2018-04-15T09:26:19.984Z,68.37
2018-04-15T09:28:47.458Z,66.10
2018-04-15T09:31:15.751Z,69.15
2018-04-15T09:33:43.189Z,68.07
2018-04-15T09:36:10.615Z,62.10
2018-04-15T09:38:38.111Z,63.78
2018-04-15T09:41:05.561Z,63.30
2018-04-15T09:43:32.992Z,63.60
2018-04-15T09:46:00.448Z,62.28
2018-04-15T09:48:27.935Z,62.60
2018-04-15T09:50:55.362Z,64.28
2018-04-15T09:53:22.810Z,67.12
2018-04-15T09:55:50.253Z,65.37
2018-04-15T09:58:17.692Z,60.35
2018-04-15T10:00:47.844Z,66.47
2018-04-15T10:03:15.289Z,67.57
2018-04-15T10:05:42.731Z,65.07
2018-04-15T10:08:10.930Z,64.33
2018-04-15T10:10:38.365Z,61.28
2018-04-15T10:13:05.809Z,59.55
2018-04-15T10:15:34.012Z,60.33
2018-04-15T10:18:01.461Z,61.53
2018-04-15T10:20:28.904Z,60.15
2018-04-15T10:22:57.131Z,57.62
2018-04-15T10:25:24.561Z,57.75
2018-04-15T10:27:52.001Z,55.65
2018-04-15T10:30:19.453Z,52.65
2018-04-15T10:32:46.897Z,51.80
2018-04-15T10:35:15.153Z,53.17
2018-04-15T10:37:42.690Z,52.55
2018-04-15T10:40:10.149Z,53.17
2018-04-15T10:42:37.681Z,53.93
2018-04-15T10:45:05.169Z,54.70
2018-04-15T10:47:32.728Z,58.35
2018-04-15T10:50:00.185Z,54.58
2018-04-15T10:52:27.643Z,56.47
2018-04-15T10:54:55.085Z,57.03
2018-04-15T10:57:22.530Z,55.12
2018-04-15T10:59:49.975Z,52.78
2018-04-15T11:02:17.404Z,55.03
2018-04-15T11:04:45.606Z,52.80
2018-04-15T11:07:13.040Z,50.80
2018-04-15T11:09:40.486Z,47.72
2018-04-15T11:12:08.802Z,48.87
2018-04-15T11:14:36.235Z,50.65
2018-04-15T11:17:03.688Z,46.65
2018-04-15T11:19:31.189Z,48.05
2018-04-15T11:21:58.677Z,49.88
2018-04-15T11:24:26.215Z,47.63
2018-04-15T11:26:53.651Z,51.03
2018-04-15T11:29:21.096Z,47.08
2018-04-15T11:31:48.537Z,47.22
2018-04-15T11:34:15.980Z,44.92
2018-04-15T11:36:44.222Z,47.28
2018-04-15T11:39:11.742Z,48.03
2018-04-15T11:41:39.172Z,50.38
2018-04-15T11:44:06.668Z,48.22
2018-04-15T11:46:34.110Z,46.92
2018-04-15T11:49:01.557Z,47.55
2018-04-15T11:51:29.060Z,43.83
2018-04-15T11:53:56.508Z,46.85
2018-04-15T11:56:23.945Z,45.10
2018-04-15T11:58:51.393Z,45.45
2018-04-15T12:01:18.847Z,42.58
2018-04-15T12:03:46.337Z,46.60
2018-04-15T12:06:13.817Z,45.77
2018-04-15T12:08:41.345Z,46.22
2018-04-15T12:11:08.802Z,45.63
2018-04-15T12:13:36.249Z,45.40
2018-04-15T12:16:03.693Z,45.90
2018-04-15T12:18:31.121Z,43.83
2018-04-15T12:20:58.691Z,46.22
2018-04-15T12:23:26.145Z,45.15
2018-04-15T12:25:53.576Z,44.88
2018-04-15T12:28:21.816Z,45.67
2018-04-15T12:30:49.264Z,46.10
2018-04-15T12:33:16.730Z,47.08
2018-04-15T12:35:44.195Z,48.17
2018-04-15T12:38:11.709Z,49.72
2018-04-15T12:40:39.153Z,48.70
2018-04-15T12:43:06.606Z,46.90
2018-04-15T12:45:34.912Z,50.33
2018-04-15T12:48:02.357Z,52.72
2018-04-15T12:50:29.812Z,49.30
2018-04-15T12:52:57.253Z,48.92
2018-04-15T12:55:25.477Z,49.42
2018-04-15T12:57:52.940Z,49.30
2018-04-15T13:00:20.396Z,49.45
2018-04-15T13:02:47.848Z,53.90
2018-04-15T13:05:15.285Z,56.22
2018-04-15T13:07:42.757Z,53.35
2018-04-15T13:10:10.213Z,52.03
2018-04-15T13:12:38.493Z,51.23
2018-04-15T13:15:05.958Z,53.78
2018-04-15T13:17:33.533Z,54.10
2018-04-15T13:20:01.047Z,53.53
2018-04-15T13:22:28.526Z,49.70
2018-04-15T13:24:55.972Z,50.12
2018-04-15T13:27:23.419Z,51.30
2018-04-15T13:29:50.882Z,56.08
2018-04-15T13:32:18.430Z,55.63
2018-04-15T13:34:45.869Z,53.23
2018-04-15T13:37:13.297Z,52.90
2018-04-15T13:39:41.529Z,53.55
2018-04-15T13:42:08.961Z,54.03
2018-04-15T13:44:36.401Z,52.45
2018-04-15T13:47:04.622Z,54.70
2018-04-15T13:49:32.077Z,50.67
2018-04-15T13:51:59.509Z,50.92
2018-04-15T13:54:27.003Z,51.53
2018-04-15T13:56:54.452Z,52.33
2018-04-15T13:59:21.990Z,48.00
2018-04-15T14:01:49.405Z,47.33
2018-04-15T14:04:17.622Z,47.47
2018-04-15T14:06:45.057Z,50.45
2018-04-15T14:09:12.501Z,48.47
2018-04-15T14:11:40.708Z,47.67
2018-04-15T14:14:08.136Z,47.83
2018-04-15T14:16:36.468Z,49.35
2018-04-15T14:19:03.913Z,52.60
2018-04-15T14:21:31.341Z,54.05
2018-04-15T14:23:58.844Z,53.72
2018-04-15T14:26:26.298Z,51.60
2018-04-15T14:28:53.730Z,52.08
2018-04-15T14:31:21.187Z,51.80
2018-04-15T14:33:48.617Z,52.50
2018-04-15T14:36:16.057Z,52.55
2018-04-15T14:38:44.265Z,53.83
2018-04-15T14:41:11.705Z,51.55
2018-04-15T14:43:39.144Z,50.75
2018-04-15T14:46:07.369Z,52.35
2018-04-15T14:48:34.792Z,54.35
2018-04-15T14:51:02.243Z,50.00
2018-04-15T14:53:30.549Z,51.70
2018-04-15T14:55:58.025Z,48.70
2018-04-15T14:58:25.481Z,52.08
2018-04-15T15:00:53.016Z,48.45
2018-04-15T15:03:20.575Z,52.83
2018-04-15T15:05:48.031Z,53.50
2018-04-15T15:08:15.481Z,52.00
2018-04-15T15:10:42.925Z,51.78
2018-04-15T15:13:10.373Z,50.28
2018-04-15T15:15:38.601Z,51.07
2018-04-15T15:18:06.038Z,50.03
2018-04-15T15:20:33.481Z,50.55
2018-04-15T15:23:00.958Z,53.05
2018-04-15T15:25:28.384Z,54.10
2018-04-15T15:27:55.833Z,52.55
2018-04-15T15:30:24.047Z,52.97
2018-04-15T15:32:51.482Z,53.97
2018-04-15T15:35:18.925Z,53.60
2018-04-15T15:37:46.362Z,53.08
2018-04-15T15:40:14.569Z,52.20
2018-04-15T15:42:42.008Z,53.78
2018-04-15T15:45:09.449Z,55.25
2018-04-15T15:47:37.764Z,56.70
2018-04-15T15:50:05.220Z,55.78
2018-04-15T15:52:32.656Z,55.47
2018-04-15T15:55:00.140Z,54.33
2018-04-15T15:57:27.581Z,55.80
2018-04-15T15:59:55.029Z,58.33
2018-04-15T16:02:22.477Z,60.53
2018-04-15T16:04:49.960Z,60.00
2018-04-15T16:07:17.388Z,55.22
2018-04-15T16:09:45.691Z,55.00
2018-04-15T16:12:13.109Z,56.72
2018-04-15T16:14:41.332Z,54.75
2018-04-15T16:17:08.773Z,54.17
2018-04-15T16:19:36.212Z,57.85
2018-04-15T16:22:03.673Z,58.50
2018-04-15T16:24:31.144Z,61.00
2018-04-15T16:26:58.569Z,59.40
2018-04-15T16:29:26.773Z,59.83
2018-04-15T16:31:54.228Z,56.22
2018-04-15T16:34:21.681Z,55.90
2018-04-15T16:36:49.126Z,55.10
2018-04-15T16:39:16.565Z,56.63
2018-04-15T16:41:44.785Z,57.10
2018-04-15T16:44:12.228Z,56.33
2018-04-15T16:46:39.681Z,56.88
2018-04-15T16:49:07.109Z,62.62
2018-04-15T16:51:35.319Z,61.53
2018-04-15T16:54:02.792Z,60.20
2018-04-15T16:56:30.228Z,56.28
2018-04-15T16:58:57.644Z,52.90
2018-04-15T17:01:25.861Z,52.35
2018-04-15T17:03:53.316Z,51.42
2018-04-15T17:06:20.774Z,50.88
2018-04-15T17:08:48.209Z,48.58
2018-04-15T17:11:15.664Z,55.03
2018-04-15T17:13:43.093Z,50.40
2018-04-15T17:16:11.322Z,47.40
2018-04-15T17:18:38.854Z,49.60
2018-04-15T17:21:06.350Z,51.60
2018-04-15T17:23:33.809Z,50.30
2018-04-15T17:26:01.372Z,51.53
2018-04-15T17:28:28.768Z,50.50
2018-04-15T17:30:56.988Z,50.90
2018-04-15T17:33:24.439Z,50.80
2018-04-15T17:35:51.894Z,49.17
2018-04-15T17:38:19.362Z,48.97
2018-04-15T17:40:46.915Z,48.28
2018-04-15T17:43:14.485Z,48.03
2018-04-15T17:45:41.884Z,48.80
2018-04-15T17:48:09.332Z,48.40
2018-04-15T17:50:37.537Z,46.60
2018-04-15T17:53:04.992Z,49.70
2018-04-15T17:55:32.416Z,49.10
2018-04-15T17:58:00.613Z,49.05
2018-04-15T18:00:28.056Z,52.15
2018-04-15T18:02:56.303Z,51.67
2018-04-15T18:05:23.705Z,53.05
2018-04-15T18:07:51.157Z,52.13
2018-04-15T18:10:18.608Z,54.63
2018-04-15T18:12:46.053Z,54.40
2018-04-15T18:15:14.261Z,52.35
2018-04-15T18:17:41.821Z,53.40
2018-04-15T18:20:09.298Z,52.72
2018-04-15T18:22:36.740Z,51.78
2018-04-15T18:25:04.275Z,54.38
2018-04-15T18:27:31.716Z,51.72
2018-04-15T18:29:59.161Z,50.58
2018-04-15T18:32:27.381Z,52.65
2018-04-15T18:34:54.841Z,50.83
2018-04-15T18:37:22.285Z,53.35
2018-04-15T18:39:49.720Z,54.35
2018-04-15T18:42:17.183Z,52.15
2018-04-15T18:44:44.672Z,52.58
2018-04-15T18:47:12.833Z,52.25
2018-04-15T18:49:40.286Z,50.55
2018-04-15T18:52:07.768Z,53.25
2018-04-15T18:54:35.208Z,48.40
2018-04-15T18:57:02.652Z,52.83
2018-04-15T18:59:30.096Z,48.60
2018-04-15T19:01:57.567Z,48.80
2018-04-15T19:04:25.010Z,49.58
2018-04-15T19:06:52.452Z,50.75
2018-04-15T19:09:20.656Z,50.45
2018-04-15T19:11:48.122Z,50.50
2018-04-15T19:14:15.548Z,49.90
2018-04-15T19:16:42.997Z,49.72
2018-04-15T19:19:11.200Z,48.92
2018-04-15T19:21:38.757Z,49.97
2018-04-15T19:24:06.197Z,50.08
2018-04-15T19:26:34.404Z,49.20
2018-04-15T19:29:01.843Z,49.70
2018-04-15T19:31:29.298Z,49.38
2018-04-15T19:33:56.717Z,49.72
2018-04-15T19:36:24.972Z,52.65
2018-04-15T19:38:52.406Z,50.33
2018-04-15T19:41:19.873Z,50.53
2018-04-15T19:43:47.305Z,49.95
2018-04-15T19:46:14.745Z,50.85
2018-04-15T19:48:42.188Z,53.65
2018-04-15T19:51:09.665Z,52.60
2018-04-15T19:53:37.086Z,51.70
2018-04-15T19:56:05.397Z,52.15
2018-04-15T19:58:32.834Z,49.08
2018-04-15T20:01:00.264Z,47.60
2018-04-15T20:03:28.473Z,49.42
2018-04-15T20:05:55.912Z,49.70
2018-04-15T20:08:24.147Z,50.10
2018-04-15T20:10:51.564Z,48.92
2018-04-15T20:13:19.008Z,50.53
2018-04-15T20:15:46.453Z,47.80
2018-04-15T20:18:14.757Z,49.42
2018-04-15T20:20:42.189Z,50.25
2018-04-15T20:23:09.632Z,49.17
2018-04-15T20:25:37.825Z,49.28
2018-04-15T20:28:05.278Z,50.35
2018-04-15T20:30:32.713Z,52.30
2018-04-15T20:33:00.921Z,54.53
2018-04-15T20:35:28.372Z,56.13
2018-04-15T20:37:55.821Z,54.88
2018-04-15T20:40:23.248Z,62.60
2018-04-15T20:42:50.692Z,60.35
2018-04-15T20:45:18.141Z,59.33
2018-04-15T20:47:45.618Z,59.50
2018-04-15T20:50:13.106Z,64.12
2018-04-15T20:52:41.325Z,69.97
2018-04-15T20:55:08.788Z,68.20
2018-04-15T20:57:36.249Z,64.03
2018-04-15T21:00:03.707Z,69.65
2018-04-15T21:02:31.156Z,68.10
2018-04-15T21:04:58.613Z,67.25
2018-04-15T21:07:26.069Z,73.07
2018-04-15T21:09:53.527Z,69.00
2018-04-15T21:12:20.978Z,68.62
2018-04-15T21:14:48.415Z,70.72
2018-04-15T21:17:15.868Z,70.57
2018-04-15T21:19:43.301Z,73.18
2018-04-15T21:22:11.513Z,70.53
2018-04-15T21:24:38.954Z,76.93
2018-04-15T21:27:06.381Z,76.97
2018-04-15T21:29:34.691Z,76.00
2018-04-15T21:32:02.119Z,75.87
2018-04-15T21:34:29.701Z,82.97
2018-04-15T21:36:57.129Z,81.00
2018-04-15T21:39:25.332Z,83.87
2018-04-15T21:41:52.792Z,83.68
2018-04-15T21:44:20.233Z,84.77
2018-04-15T21:46:47.676Z,85.90
2018-04-15T21:49:15.130Z,86.57
2018-04-15T21:51:43.332Z,91.00
2018-04-15T21:54:10.792Z,82.70
2018-04-15T21:56:38.214Z,84.37
2018-04-15T21:59:06.429Z,75.30
2018-04-15T22:01:34.136Z,80.60
2018-04-15T22:04:02.345Z,83.50
2018-04-15T22:06:29.801Z,82.30
2018-04-15T22:08:57.264Z,81.10
2018-04-15T22:11:36.658Z,80.75
2018-04-15T22:14:04.093Z,81.65
2018-04-15T22:16:31.529Z,89.95
2018-04-15T22:18:58.972Z,76.28
2018-04-15T22:21:26.423Z,78.55
2018-04-15T22:23:53.868Z,82.60
2018-04-15T22:26:21.309Z,89.50
2018-04-15T22:28:49.526Z,87.75
2018-04-15T22:31:16.961Z,89.32
2018-04-15T22:33:44.408Z,92.12
2018-04-15T22:36:11.878Z,90.70
2018-04-15T22:38:39.321Z,96.55
2018-04-15T22:41:06.769Z,91.78
2018-04-15T22:43:34.269Z,94.73
2018-04-15T22:46:01.813Z,92.05
2018-04-15T22:51:23.845Z,93.53
2018-04-15T22:53:51.332Z,97.93
2018-04-15T22:56:18.799Z,100.03
2018-04-15T22:58:47.186Z,104.32
2018-04-15T23:01:14.654Z,96.40
2018-04-15T23:03:42.093Z,102.45
2018-04-15T23:06:09.528Z,97.30
2018-04-15T23:08:36.985Z,103.28
2018-04-15T23:11:04.428Z,98.87
2018-04-15T23:13:31.883Z,107.40
2018-04-15T23:15:59.308Z,114.18
2018-04-15T23:18:27.527Z,115.30
2018-04-15T23:20:54.993Z,105.23
2018-04-15T23:23:22.436Z,106.05
2018-04-15T23:25:49.884Z,108.25
2018-04-15T23:28:17.332Z,106.80
2018-04-15T23:30:44.828Z,114.82
2018-04-15T23:33:12.276Z,103.90
2018-04-15T23:35:39.721Z,113.37
2018-04-15T23:38:07.173Z,108.68
2018-04-15T23:40:34.634Z,109.50
2018-04-15T23:43:02.113Z,115.80
2018-04-15T23:45:29.661Z,116.20
2018-04-15T23:47:57.194Z,114.53
2018-04-15T23:50:24.620Z,120.65
2018-04-15T23:52:52.841Z,112.68
2018-04-15T23:55:20.302Z,124.12
2018-04-15T23:57:47.736Z,120.80
